GCLPGOOY

Guest
Details From GCLP - Gran Canaria
To GOOY - Dakar Leopold Sedar Senghor Intl
Flight Number -
Tags generated
Created
Modified
Stats Distance 824 nm / 1,526 km
Max Altitude 34,000 ft / 10,363 m
Waypoints 11
Social Downloads 0
Likes 0
Share VATSIM

Download

Looking for another format? Having issues loading an existing format? Contact us
Advertisement - Login to hide

Notes

Basic altitude profile: - Ascent Rate: 2500ft/min - Ascent Speed: 250kts - Cruise Altitude: 35000ft - Cruise Speed: 420kts - Descent Rate: 1500ft/min - Descent Speed: 250kts Options: - Use NATs: yes - Use PACOTS: yes - Use low airways: yes - Use high airways: yes

Route

GCLP GDV B600 DKH UB600G MAURI A600F PE UB600 LIMAX B600F YF GOOY

ID Type Via Altitude Latitude Longitude Leg Dist Tot Dist Heading (true) Name
O GCLP APT - 0 ft / 0 m 27.93154˚ -15.38559˚ - 0 nm - Gran Canaria
GDV VOR - 3,200 ft / 975 m 28.07708˚ -15.42899˚ 9 nm 9 nm 345° / 345° GRAN CANARIA VOR-DME
ROYAL FIX B600 (AWY-LO) 24,500 ft / 7,468 m 25.00000˚ -15.78674˚ 185 nm 194 nm 186° / 186° -
DKH VOR B600 (AWY-HI) 24,500 ft / 7,468 m 23.73977˚ -15.92632˚ 76 nm 270 nm 186° / 186° DAKHLA VOR-DME
LOLOS FIX UB600G (AWY-HI) 34,000 ft / 10,363 m 21.85000˚ -16.66667˚ 120 nm 391 nm 200° / 200° -
MAURI FIX UB600G (AWY-HI) 34,000 ft / 10,363 m 21.33333˚ -16.86667˚ 32 nm 424 nm 200° / 200° -
PE VOR A600F (AWY-LO) 24,500 ft / 7,468 m 20.91444˚ -17.03497˚ 26 nm 451 nm 201° / 201° NOUADHIBOU VOR-DME
NULET FIX UB600 (AWY-HI) 34,000 ft / 10,363 m 18.41806˚ -17.21667˚ 150 nm 601 nm 184° / 184° -
LIMAX FIX UB600 (AWY-HI) 26,000 ft / 7,925 m 16.74861˚ -17.33528˚ 100 nm 702 nm 184° / 184° -
YF VOR B600F (AWY-LO) 5,500 ft / 1,676 m 14.74483˚ -17.47478˚ 120 nm 822 nm 184° / 184° DAKAR VOR-DME
O GOOY APT - 0 ft / 0 m 14.73971˚ -17.49023˚ 0 nm 823 nm 251° / 251° Dakar Leopold Sedar Senghor Intl

Altitude Profile

Advertisement - Login to hide

Weather


0- 5 10 15 20 25 30 35+ Temperature / ° C

Clouds and Precipitation
Forecast for 2017-12-12 00:00 UTC. Updated 2 hours ago

Ground ~20,000 ft ~40,000 ft Winds

GCLP

Details ICAO GCLP (LPA)
Name Gran Canaria
Region Canary Islands
Timezone Atlantic/Canary (UTC+0.0)
Stats Elevation 77 ft / 23 m (AMSL)
Location 27.931544° -15.385592°
Runways 2
Magnetic Variation 4.685° W

METAR

GCLP 120100Z 01024G37KT 340V050 9000 -RA FEW020 SCT040 BKN050 16/13 Q1015 NOSIG

Decode

TAF

TAF AMD GCLP 112130Z 1121/1221 36022KT 9999 BKN030 TX21/1215Z TN16/1206Z TEMPO 1121/1221 36025G35KT TEMPO 1121/1202 36012KT 3000 RA

Decode

Departure Runways

ID Width Length Bearing (true) Bearing (mag) Surface Threshold Offset Overrun Length
03L 148 ft / 45 m 10,203 ft / 3,110 m 21.33° 26.02° Asphalt 0 ft / 0 m 656 ft / 200 m
03R 148 ft / 45 m 10,200 ft / 3,109 m 21.32° 26.01° Asphalt 0 ft / 0 m 673 ft / 205 m
21L 148 ft / 45 m 10,200 ft / 3,109 m 201.33° 206.02° Asphalt 0 ft / 0 m 689 ft / 210 m
21R 148 ft / 45 m 10,203 ft / 3,110 m 201.33° 206.02° Asphalt 0 ft / 0 m 755 ft / 230 m

GOOY

Details ICAO GOOY (DKR)
Name Dakar Leopold Sedar Senghor Intl
Region Senegal
Timezone Africa/Dakar (UTC+0.0)
Stats Elevation 85 ft / 26 m (AMSL)
Location 14.739711° -17.490226°
Runways 2
Magnetic Variation 7.348° W

METAR

GOOY 120000Z 04008KT 4500 DU NSC 24/16 Q1013

Decode

TAF

TAF GOOY 112330Z 1200/1306 36010KT 4500 DU NSC= TAF GBYD 112330Z 1200/1306 35006KT 8000 NSC

Decode

Destination Runways

ID Width Length Bearing (true) Bearing (mag) Surface Threshold Offset Overrun Length
03 98 ft / 30 m 4,921 ft / 1,500 m 22.31° 29.66° Asphalt 0 ft / 0 m 98 ft / 30 m
18 148 ft / 45 m 11,511 ft / 3,509 m 172.57° 179.92° Asphalt 525 ft / 160 m 197 ft / 60 m
21 98 ft / 30 m 4,921 ft / 1,500 m 202.31° 209.66° Asphalt 0 ft / 0 m 1,590 ft / 485 m
36 148 ft / 45 m 11,511 ft / 3,509 m 352.57° 359.92° Asphalt 0 ft / 0 m 197 ft / 60 m

Approach Navaids

Runway Type Ident Frequency Range Bearing (true) Bearing (mag) Slope Elevation
36 Localiser YF 110.30 MHz 18 nm / 33 km 352.33° 359.67° - 65 ft / 20 m (AMSL)
36 Glidescope YF 110.30 MHz 10 nm / 19 km 352.57° 359.92° 3.01° 73 ft / 22 m (AMSL)
36 DME YF 110.30 MHz 18 nm / 33 km - - - 73 ft / 22 m (AMSL)

Popular Alternatives